sensor_id;sensor_type;location;lat;lon;timestamp;pressure;altitude;pressure_sealevel;temperature;humidity
58082;BME280;43876;55.576;38.242;2022-09-12T00:02:16;100157.38;;;11.50;54.48
58082;BME280;43876;55.576;38.242;2022-09-12T00:04:43;100164.38;;;11.51;54.27
58082;BME280;43876;55.576;38.242;2022-09-12T00:07:10;100168.75;;;11.54;54.32
58082;BME280;43876;55.576;38.242;2022-09-12T00:09:37;100170.47;;;11.50;54.31
58082;BME280;43876;55.576;38.242;2022-09-12T00:12:04;100163.50;;;11.49;54.66
58082;BME280;43876;55.576;38.242;2022-09-12T00:14:34;100157.38;;;11.48;54.44
58082;BME280;43876;55.576;38.242;2022-09-12T00:17:01;100153.00;;;11.51;54.38
58082;BME280;43876;55.576;38.242;2022-09-12T00:19:28;100156.53;;;11.54;54.58
58082;BME280;43876;55.576;38.242;2022-09-12T00:21:55;100151.31;;;11.60;54.44
58082;BME280;43876;55.576;38.242;2022-09-12T00:24:22;100145.22;;;11.61;54.42
58082;BME280;43876;55.576;38.242;2022-09-12T00:26:49;100148.72;;;11.60;54.45
58082;BME280;43876;55.576;38.242;2022-09-12T00:29:16;100142.59;;;11.61;54.73
58082;BME280;43876;55.576;38.242;2022-09-12T00:31:44;100142.63;;;11.60;54.63
58082;BME280;43876;55.576;38.242;2022-09-12T00:34:11;100141.72;;;11.56;54.70
58082;BME280;43876;55.576;38.242;2022-09-12T00:36:38;100140.84;;;11.54;54.56
58082;BME280;43876;55.576;38.242;2022-09-12T00:39:05;100140.81;;;11.48;54.90
58082;BME280;43876;55.576;38.242;2022-09-12T00:41:36;100137.31;;;11.46;54.99
58082;BME280;43876;55.576;38.242;2022-09-12T00:46:58;100137.28;;;11.37;55.18
58082;BME280;43876;55.576;38.242;2022-09-12T00:54:28;100138.16;;;11.42;55.10
58082;BME280;43876;55.576;38.242;2022-09-12T00:56:56;100139.91;;;11.43;55.30
58082;BME280;43876;55.576;38.242;2022-09-12T00:59:27;100139.03;;;11.44;55.26
58082;BME280;43876;55.576;38.242;2022-09-12T01:01:55;100145.16;;;11.43;55.43
58082;BME280;43876;55.576;38.242;2022-09-12T01:04:22;100141.66;;;11.42;55.29
58082;BME280;43876;55.576;38.242;2022-09-12T01:06:51;100140.81;;;11.45;55.22
58082;BME280;43876;55.576;38.242;2022-09-12T01:09:21;100133.81;;;11.41;55.69
58082;BME280;43876;55.576;38.242;2022-09-12T01:11:48;100146.88;;;11.41;55.65
58082;BME280;43876;55.576;38.242;2022-09-12T01:14:16;100141.63;;;11.35;55.66
58082;BME280;43876;55.576;38.242;2022-09-12T01:16:43;100134.63;;;11.26;56.06
58082;BME280;43876;55.576;38.242;2022-09-12T01:21:42;100132.78;;;11.08;56.50
58082;BME280;43876;55.576;38.242;2022-09-12T01:26:59;100137.16;;;11.12;56.55
58082;BME280;43876;55.576;38.242;2022-09-12T01:37:04;100124.84;;;10.94;57.24
58082;BME280;43876;55.576;38.242;2022-09-12T01:39:36;100124.81;;;10.88;57.58
58082;BME280;43876;55.576;38.242;2022-09-12T01:42:07;100130.84;;;10.79;57.77
58082;BME280;43876;55.576;38.242;2022-09-12T01:47:08;100126.44;;;10.68;58.45
58082;BME280;43876;55.576;38.242;2022-09-12T01:49:43;100128.09;;;10.59;59.40
58082;BME280;43876;55.576;38.242;2022-09-12T01:52:22;100127.16;;;10.51;59.39
58082;BME280;43876;55.576;38.242;2022-09-12T01:54:56;100127.13;;;10.47;59.57
58082;BME280;43876;55.576;38.242;2022-09-12T01:57:26;100129.72;;;10.42;60.13
58082;BME280;43876;55.576;38.242;2022-09-12T01:59:58;100123.63;;;10.41;60.11
58082;BME280;43876;55.576;38.242;2022-09-12T02:05:07;100125.41;;;10.52;59.42
58082;BME280;43876;55.576;38.242;2022-09-12T02:07:36;100127.16;;;10.51;59.47
58082;BME280;43876;55.576;38.242;2022-09-12T02:12:34;100131.50;;;10.51;59.14
58082;BME280;43876;55.576;38.242;2022-09-12T02:15:03;100125.44;;;10.50;59.51
58082;BME280;43876;55.576;38.242;2022-09-12T02:17:34;100132.38;;;10.48;59.53
58082;BME280;43876;55.576;38.242;2022-09-12T02:20:15;100133.28;;;10.53;59.95
58082;BME280;43876;55.576;38.242;2022-09-12T02:23:05;100132.41;;;10.56;60.08
58082;BME280;43876;55.576;38.242;2022-09-12T02:25:36;100133.31;;;10.59;60.03
58082;BME280;43876;55.576;38.242;2022-09-12T02:28:05;100133.31;;;10.56;59.88
58082;BME280;43876;55.576;38.242;2022-09-12T02:30:39;100124.47;;;10.42;60.22
58082;BME280;43876;55.576;38.242;2022-09-12T02:33:42;100129.66;;;10.39;60.46
58082;BME280;43876;55.576;38.242;2022-09-12T02:38:37;100126.22;;;10.41;60.50
58082;BME280;43876;55.576;38.242;2022-09-12T02:41:09;100128.75;;;10.32;61.20
58082;BME280;43876;55.576;38.242;2022-09-12T02:43:36;100127.81;;;10.27;61.51
58082;BME280;43876;55.576;38.242;2022-09-12T02:46:05;100129.53;;;10.28;61.34
58082;BME280;43876;55.576;38.242;2022-09-12T02:48:33;100130.47;;;10.30;61.34
58082;BME280;43876;55.576;38.242;2022-09-12T02:51:03;100133.13;;;10.33;60.77
58082;BME280;43876;55.576;38.242;2022-09-12T02:53:30;100129.63;;;10.34;60.54
58082;BME280;43876;55.576;38.242;2022-09-12T02:55:57;100130.47;;;10.30;60.72
58082;BME280;43876;55.576;38.242;2022-09-12T02:58:26;100136.50;;;10.26;61.46
58082;BME280;43876;55.576;38.242;2022-09-12T03:08:46;100137.09;;;9.97;63.10
58082;BME280;43876;55.576;38.242;2022-09-12T03:18:57;100123.97;;;9.90;64.13
58082;BME280;43876;55.576;38.242;2022-09-12T03:29:06;100136.84;;;9.73;65.30
58082;BME280;43876;55.576;38.242;2022-09-12T03:31:33;100134.13;;;9.65;65.04
58082;BME280;43876;55.576;38.242;2022-09-12T03:34:00;100136.66;;;9.57;65.59
58082;BME280;43876;55.576;38.242;2022-09-12T03:36:28;100134.00;;;9.54;66.29
58082;BME280;43876;55.576;38.242;2022-09-12T03:38:55;100137.44;;;9.49;65.52
58082;BME280;43876;55.576;38.242;2022-09-12T03:41:22;100140.84;;;9.46;66.42
58082;BME280;43876;55.576;38.242;2022-09-12T03:43:49;100138.25;;;9.45;66.63
58082;BME280;43876;55.576;38.242;2022-09-12T03:46:16;100133.00;;;9.40;66.50
58082;BME280;43876;55.576;38.242;2022-09-12T03:48:43;100136.44;;;9.39;67.07
58082;BME280;43876;55.576;38.242;2022-09-12T03:51:10;100132.09;;;9.39;67.18
58082;BME280;43876;55.576;38.242;2022-09-12T03:53:36;100140.78;;;9.38;67.59
58082;BME280;43876;55.576;38.242;2022-09-12T03:56:07;100134.66;;;9.36;67.93
58082;BME280;43876;55.576;38.242;2022-09-12T03:58:34;100134.63;;;9.32;68.20
58082;BME280;43876;55.576;38.242;2022-09-12T04:01:09;100135.47;;;9.32;68.10
58082;BME280;43876;55.576;38.242;2022-09-12T04:03:42;100134.56;;;9.29;68.72
58082;BME280;43876;55.576;38.242;2022-09-12T04:06:09;100133.69;;;9.28;68.76
58082;BME280;43876;55.576;38.242;2022-09-12T04:08:36;100132.84;;;9.29;69.05
58082;BME280;43876;55.576;38.242;2022-09-12T04:11:05;100137.97;;;9.23;69.48
58082;BME280;43876;55.576;38.242;2022-09-12T04:13:33;100136.22;;;9.22;69.43
58082;BME280;43876;55.576;38.242;2022-09-12T04:16:00;100136.28;;;9.25;69.38
58082;BME280;43876;55.576;38.242;2022-09-12T04:18:27;100134.56;;;9.27;69.09
58082;BME280;43876;55.576;38.242;2022-09-12T04:20:54;100131.06;;;9.27;69.44
58082;BME280;43876;55.576;38.242;2022-09-12T04:23:21;100129.34;;;9.29;69.88
58082;BME280;43876;55.576;38.242;2022-09-12T04:25:57;100141.53;;;9.30;69.61
58082;BME280;43876;55.576;38.242;2022-09-12T04:28:25;100135.44;;;9.28;70.29
58082;BME280;43876;55.576;38.242;2022-09-12T04:30:52;100131.06;;;9.27;70.40
58082;BME280;43876;55.576;38.242;2022-09-12T04:33:19;100127.59;;;9.26;70.53
58082;BME280;43876;55.576;38.242;2022-09-12T04:35:46;100129.41;;;9.32;69.73
58082;BME280;43876;55.576;38.242;2022-09-12T04:38:13;100130.34;;;9.38;70.00
58082;BME280;43876;55.576;38.242;2022-09-12T04:40:40;100139.91;;;9.39;70.46
58082;BME280;43876;55.576;38.242;2022-09-12T04:43:07;100139.03;;;9.39;70.33
58082;BME280;43876;55.576;38.242;2022-09-12T04:45:40;100133.84;;;9.42;69.90
58082;BME280;43876;55.576;38.242;2022-09-12T04:48:06;100139.94;;;9.41;70.29
58082;BME280;43876;55.576;38.242;2022-09-12T04:50:33;100138.19;;;9.40;70.19
58082;BME280;43876;55.576;38.242;2022-09-12T04:53:01;100138.19;;;9.41;71.14
58082;BME280;43876;55.576;38.242;2022-09-12T04:55:27;100139.16;;;9.47;70.95
58082;BME280;43876;55.576;38.242;2022-09-12T04:57:54;100134.84;;;9.52;70.73
58082;BME280;43876;55.576;38.242;2022-09-12T05:00:21;100129.72;;;9.61;70.87
58082;BME280;43876;55.576;38.242;2022-09-12T05:02:48;100137.69;;;9.70;70.45
58082;BME280;43876;55.576;38.242;2022-09-12T05:05:15;100123.75;;;9.68;70.82
58082;BME280;43876;55.576;38.242;2022-09-12T05:07:42;100132.38;;;9.62;70.97
58082;BME280;43876;55.576;38.242;2022-09-12T05:10:09;100133.16;;;9.55;71.29
58082;BME280;43876;55.576;38.242;2022-09-12T05:12:37;100140.91;;;9.49;72.17
58082;BME280;43876;55.576;38.242;2022-09-12T05:15:05;100133.94;;;9.47;71.77
58082;BME280;43876;55.576;38.242;2022-09-12T05:17:32;100130.44;;;9.45;72.38
58082;BME280;43876;55.576;38.242;2022-09-12T05:19:58;100127.72;;;9.37;72.71
58082;BME280;43876;55.576;38.242;2022-09-12T05:22:26;100133.72;;;9.31;73.13
58082;BME280;43876;55.576;38.242;2022-09-12T05:24:53;100129.34;;;9.29;72.73
58082;BME280;43876;55.576;38.242;2022-09-12T05:27:20;100127.72;;;9.37;72.57
58082;BME280;43876;55.576;38.242;2022-09-12T05:29:47;100137.38;;;9.46;72.91
58082;BME280;43876;55.576;38.242;2022-09-12T05:32:14;100138.34;;;9.51;72.95
58082;BME280;43876;55.576;38.242;2022-09-12T05:34:41;100137.53;;;9.58;72.58
58082;BME280;43876;55.576;38.242;2022-09-12T05:37:07;100134.13;;;9.65;72.71
58082;BME280;43876;55.576;38.242;2022-09-12T05:39:34;100140.28;;;9.69;73.17
58082;BME280;43876;55.576;38.242;2022-09-12T05:42:02;100124.66;;;9.70;72.65
58082;BME280;43876;55.576;38.242;2022-09-12T05:44:32;100129.91;;;9.75;73.15
58082;BME280;43876;55.576;38.242;2022-09-12T05:46:58;100132.59;;;9.81;72.70
58082;BME280;43876;55.576;38.242;2022-09-12T05:49:25;100124.00;;;9.93;73.06
58082;BME280;43876;55.576;38.242;2022-09-12T05:51:52;100122.38;;;10.05;72.78
58082;BME280;43876;55.576;38.242;2022-09-12T05:54:19;100123.31;;;10.12;72.69
58082;BME280;43876;55.576;38.242;2022-09-12T05:56:47;100122.53;;;10.21;72.04
58082;BME280;43876;55.576;38.242;2022-09-12T05:59:15;100116.44;;;10.20;72.39
58082;BME280;43876;55.576;38.242;2022-09-12T06:01:43;100120.75;;;10.17;72.57
58082;BME280;43876;55.576;38.242;2022-09-12T06:04:10;100116.44;;;10.23;72.73
58082;BME280;43876;55.576;38.242;2022-09-12T06:06:38;100117.34;;;10.25;72.90
58082;BME280;43876;55.576;38.242;2022-09-12T06:09:07;100108.63;;;10.25;73.46
58082;BME280;43876;55.576;38.242;2022-09-12T06:11:35;100112.19;;;10.30;73.46
58082;BME280;43876;55.576;38.242;2022-09-12T06:14:03;100121.03;;;10.44;72.65
58082;BME280;43876;55.576;38.242;2022-09-12T06:16:30;100115.72;;;10.35;72.99
58082;BME280;43876;55.576;38.242;2022-09-12T06:19:05;100109.50;;;10.24;73.37
58082;BME280;43876;55.576;38.242;2022-09-12T06:21:33;100117.28;;;10.19;73.55
58082;BME280;43876;55.576;38.242;2022-09-12T06:24:06;100130.34;;;10.19;73.98
58082;BME280;43876;55.576;38.242;2022-09-12T06:26:33;100119.06;;;10.22;73.52
58082;BME280;43876;55.576;38.242;2022-09-12T06:29:00;100112.13;;;10.25;73.35
58082;BME280;43876;55.576;38.242;2022-09-12T06:31:32;100118.31;;;10.31;73.37
58082;BME280;43876;55.576;38.242;2022-09-12T06:34:01;100112.22;;;10.33;73.44
58082;BME280;43876;55.576;38.242;2022-09-12T06:36:29;100132.28;;;10.40;73.00
58082;BME280;43876;55.576;38.242;2022-09-12T06:38:57;100126.19;;;10.37;73.20
58082;BME280;43876;55.576;38.242;2022-09-12T06:41:27;100135.78;;;10.39;73.53
58082;BME280;43876;55.576;38.242;2022-09-12T06:43:58;100136.63;;;10.37;73.25
58082;BME280;43876;55.576;38.242;2022-09-12T06:46:25;100139.28;;;10.41;73.06
58082;BME280;43876;55.576;38.242;2022-09-12T06:48:56;100131.47;;;10.44;73.40
58082;BME280;43876;55.576;38.242;2022-09-12T06:51:26;100133.25;;;10.50;73.10
58082;BME280;43876;55.576;38.242;2022-09-12T06:53:55;100135.88;;;10.53;72.73
58082;BME280;43876;55.576;38.242;2022-09-12T06:56:23;100134.16;;;10.55;73.21
58082;BME280;43876;55.576;38.242;2022-09-12T06:58:52;100139.41;;;10.60;73.27
58082;BME280;43876;55.576;38.242;2022-09-12T07:01:22;100142.91;;;10.59;73.25
58082;BME280;43876;55.576;38.242;2022-09-12T07:03:50;100136.75;;;10.51;73.19
58082;BME280;43876;55.576;38.242;2022-09-12T07:06:18;100146.31;;;10.52;73.54
58082;BME280;43876;55.576;38.242;2022-09-12T07:08:46;100135.94;;;10.62;72.99
58082;BME280;43876;55.576;38.242;2022-09-12T07:11:17;100152.59;;;10.77;72.92
58082;BME280;43876;55.576;38.242;2022-09-12T07:13:46;100144.88;;;10.92;72.79
58082;BME280;43876;55.576;38.242;2022-09-12T07:16:14;100142.34;;;11.04;72.15
58082;BME280;43876;55.576;38.242;2022-09-12T07:18:55;100131.97;;;11.20;71.94
58082;BME280;43876;55.576;38.242;2022-09-12T07:21:24;100144.25;;;11.32;71.64
58082;BME280;43876;55.576;38.242;2022-09-12T07:23:50;100146.88;;;11.41;71.57
58082;BME280;43876;55.576;38.242;2022-09-12T07:26:17;100151.28;;;11.53;70.85
58082;BME280;43876;55.576;38.242;2022-09-12T07:28:44;100148.66;;;11.53;70.94
58082;BME280;43876;55.576;38.242;2022-09-12T07:31:17;100145.16;;;11.44;71.06
58082;BME280;43876;55.576;38.242;2022-09-12T07:33:44;100140.81;;;11.48;70.97
58082;BME280;43876;55.576;38.242;2022-09-12T07:36:12;100142.56;;;11.51;71.15
58082;BME280;43876;55.576;38.242;2022-09-12T07:38:43;100153.91;;;11.54;70.24
58082;BME280;43876;55.576;38.242;2022-09-12T07:43:40;100150.50;;;11.74;70.23
58082;BME280;43876;55.576;38.242;2022-09-12T07:46:08;100146.09;;;11.62;69.75
58082;BME280;43876;55.576;38.242;2022-09-12T07:48:35;100146.88;;;11.41;70.16
58082;BME280;43876;55.576;38.242;2022-09-12T07:51:03;100153.75;;;11.20;70.55
58082;BME280;43876;55.576;38.242;2022-09-12T07:53:32;100140.59;;;11.03;71.14
58082;BME280;43876;55.576;38.242;2022-09-12T07:55:59;100140.59;;;11.03;71.17
58082;BME280;43876;55.576;38.242;2022-09-12T07:58:29;100138.78;;;10.96;70.89
58082;BME280;43876;55.576;38.242;2022-09-12T08:01:06;100152.72;;;10.92;71.33
58082;BME280;43876;55.576;38.242;2022-09-12T08:03:34;100142.22;;;10.88;70.78
58082;BME280;43876;55.576;38.242;2022-09-12T08:06:09;100157.88;;;10.81;70.88
58082;BME280;43876;55.576;38.242;2022-09-12T08:08:37;100155.28;;;10.84;70.66
58082;BME280;43876;55.576;38.242;2022-09-12T08:11:05;100143.13;;;10.94;70.79
58082;BME280;43876;55.576;38.242;2022-09-12T08:13:32;100158.09;;;11.15;70.12
58082;BME280;43876;55.576;38.242;2022-09-12T08:16:11;100152.81;;;11.07;69.91
58082;BME280;43876;55.576;38.242;2022-09-12T08:18:39;100150.16;;;11.03;69.87
58082;BME280;43876;55.576;38.242;2022-09-12T08:21:08;100140.59;;;11.05;69.76
58082;BME280;43876;55.576;38.242;2022-09-12T08:23:35;100151.03;;;11.00;69.10
58082;BME280;43876;55.576;38.242;2022-09-12T08:26:03;100151.88;;;10.98;69.45
58082;BME280;43876;55.576;38.242;2022-09-12T08:28:32;100148.41;;;10.99;69.59
58082;BME280;43876;55.576;38.242;2022-09-12T08:31:06;100144.06;;;10.99;69.13
58082;BME280;43876;55.576;38.242;2022-09-12T08:33:34;100142.28;;;10.94;69.34
58082;BME280;43876;55.576;38.242;2022-09-12T08:36:01;100137.94;;;10.97;69.13
58082;BME280;43876;55.576;38.242;2022-09-12T08:38:29;100134.47;;;11.03;68.99
58082;BME280;43876;55.576;38.242;2022-09-12T08:41:39;100148.44;;;11.03;68.88
58082;BME280;43876;55.576;38.242;2022-09-12T08:46:25;100147.66;;;11.20;68.42
58082;BME280;43876;55.576;38.242;2022-09-12T08:48:54;100140.66;;;11.16;68.02
58082;BME280;43876;55.576;38.242;2022-09-12T08:51:21;100141.50;;;11.12;68.29
58082;BME280;43876;55.576;38.242;2022-09-12T08:53:54;100130.13;;;11.05;68.15
58082;BME280;43876;55.576;38.242;2022-09-12T08:56:22;100131.94;;;11.15;68.24
58082;BME280;43876;55.576;38.242;2022-09-12T08:58:56;100132.84;;;11.22;68.13
58082;BME280;43876;55.576;38.242;2022-09-12T09:01:30;100133.72;;;11.22;67.87
58082;BME280;43876;55.576;38.242;2022-09-12T09:06:37;100126.81;;;11.40;67.64
58082;BME280;43876;55.576;38.242;2022-09-12T09:09:14;100132.06;;;11.46;67.28
58082;BME280;43876;55.576;38.242;2022-09-12T09:12:00;100136.44;;;11.48;67.00
58082;BME280;43876;55.576;38.242;2022-09-12T09:19:45;100127.81;;;11.76;66.39
58082;BME280;43876;55.576;38.242;2022-09-12T09:25:01;100132.22;;;11.84;65.54
58082;BME280;43876;55.576;38.242;2022-09-12T09:27:31;100127.91;;;11.97;65.63
58082;BME280;43876;55.576;38.242;2022-09-12T09:30:11;100140.16;;;12.12;64.93
58082;BME280;43876;55.576;38.242;2022-09-12T09:32:56;100137.53;;;12.15;64.68
58082;BME280;43876;55.576;38.242;2022-09-12T09:43:58;100137.47;;;13.14;62.49
58082;BME280;43876;55.576;38.242;2022-09-12T09:46:31;100140.94;;;13.39;62.16
58082;BME280;43876;55.576;38.242;2022-09-12T09:49:19;100142.69;;;13.30;61.29
58082;BME280;43876;55.576;38.242;2022-09-12T09:51:49;100147.94;;;13.21;61.14
58082;BME280;43876;55.576;38.242;2022-09-12T09:54:26;100157.56;;;13.18;61.26
58082;BME280;43876;55.576;38.242;2022-09-12T09:57:02;100137.50;;;13.12;61.13
58082;BME280;43876;55.576;38.242;2022-09-12T09:59:33;100145.31;;;13.21;60.71
58082;BME280;43876;55.576;38.242;2022-09-12T10:02:18;100136.59;;;13.21;60.96
58082;BME280;43876;55.576;38.242;2022-09-12T10:04:57;100140.09;;;13.17;60.45
58082;BME280;43876;55.576;38.242;2022-09-12T10:07:28;100145.34;;;13.17;59.82
58082;BME280;43876;55.576;38.242;2022-09-12T10:10:29;100126.97;;;13.20;60.03
58082;BME280;43876;55.576;38.242;2022-09-12T10:13:07;100138.31;;;13.20;59.63
58082;BME280;43876;55.576;38.242;2022-09-12T10:18:48;100126.09;;;13.13;59.64
58082;BME280;43876;55.576;38.242;2022-09-12T10:21:35;100138.31;;;13.14;59.36
58082;BME280;43876;55.576;38.242;2022-09-12T10:29:39;100135.69;;;13.40;59.22
58082;BME280;43876;55.576;38.242;2022-09-12T10:32:12;100139.19;;;13.33;58.29
58082;BME280;43876;55.576;38.242;2022-09-12T10:35:00;100133.09;;;13.17;58.99
58082;BME280;43876;55.576;38.242;2022-09-12T10:37:34;100134.84;;;13.34;58.85
58082;BME280;43876;55.576;38.242;2022-09-12T10:40:05;100131.31;;;13.35;57.80
58082;BME280;43876;55.576;38.242;2022-09-12T10:42:53;100127.84;;;13.17;57.57
58082;BME280;43876;55.576;38.242;2022-09-12T10:45:22;100140.97;;;13.03;57.39
58082;BME280;43876;55.576;38.242;2022-09-12T10:47:50;100127.91;;;12.94;58.11
58082;BME280;43876;55.576;38.242;2022-09-12T10:50:19;100135.75;;;12.93;58.13
58082;BME280;43876;55.576;38.242;2022-09-12T10:52:51;100136.66;;;12.91;57.99
58082;BME280;43876;55.576;38.242;2022-09-12T10:55:30;100134.88;;;12.90;58.28
58082;BME280;43876;55.576;38.242;2022-09-12T11:00:37;100122.66;;;12.88;58.18
58082;BME280;43876;55.576;38.242;2022-09-12T11:03:21;100134.91;;;12.95;58.06
58082;BME280;43876;55.576;38.242;2022-09-12T11:13:45;100114.75;;;13.03;57.63
58082;BME280;43876;55.576;38.242;2022-09-12T11:27:10;100115.66;;;13.02;57.12
58082;BME280;43876;55.576;38.242;2022-09-12T11:42:53;100108.56;;;13.35;56.30
58082;BME280;43876;55.576;38.242;2022-09-12T11:45:29;100105.91;;;13.40;56.42
58082;BME280;43876;55.576;38.242;2022-09-12T11:48:00;100101.50;;;13.56;56.38
58082;BME280;43876;55.576;38.242;2022-09-12T11:50:30;100095.31;;;13.66;55.90
58082;BME280;43876;55.576;38.242;2022-09-12T11:53:33;100104.94;;;13.67;56.19
58082;BME280;43876;55.576;38.242;2022-09-12T11:55:59;100090.97;;;13.59;55.92
58082;BME280;43876;55.576;38.242;2022-09-12T11:58:29;100084.81;;;13.61;56.23
58082;BME280;43876;55.576;38.242;2022-09-12T12:01:09;100085.66;;;13.72;55.96
58082;BME280;43876;55.576;38.242;2022-09-12T12:03:42;100081.19;;;13.82;55.21
58082;BME280;43876;55.576;38.242;2022-09-12T12:08:37;100081.19;;;13.82;55.43
58082;BME280;43876;55.576;38.242;2022-09-12T12:11:04;100075.09;;;13.79;54.73
58082;BME280;43876;55.576;38.242;2022-09-12T12:16:05;100065.44;;;13.84;54.90
58082;BME280;43876;55.576;38.242;2022-09-12T12:18:37;100069.75;;;13.91;54.57
58082;BME280;43876;55.576;38.242;2022-09-12T12:21:28;100069.75;;;13.92;54.71
58082;BME280;43876;55.576;38.242;2022-09-12T12:24:01;100077.72;;;13.82;54.84
58082;BME280;43876;55.576;38.242;2022-09-12T12:29:09;100067.22;;;13.82;54.14
58082;BME280;43876;55.576;38.242;2022-09-12T12:34:33;100062.66;;;14.07;53.88
58082;BME280;43876;55.576;38.242;2022-09-12T12:50:02;100054.63;;;14.24;53.17
58082;BME280;43876;55.576;38.242;2022-09-12T12:52:41;100047.66;;;14.21;53.33
58082;BME280;43876;55.576;38.242;2022-09-12T12:55:16;100052.84;;;14.29;53.54
58082;BME280;43876;55.576;38.242;2022-09-12T12:57:49;100058.19;;;14.20;53.33
58082;BME280;43876;55.576;38.242;2022-09-12T13:02:51;100056.50;;;14.09;53.36
58082;BME280;43876;55.576;38.242;2022-09-12T13:05:24;100050.34;;;14.10;53.05
58082;BME280;43876;55.576;38.242;2022-09-12T13:07:52;100054.75;;;14.10;53.44
58082;BME280;43876;55.576;38.242;2022-09-12T13:10:27;100048.53;;;14.19;53.19
58082;BME280;43876;55.576;38.242;2022-09-12T13:12:56;100038.75;;;14.36;52.76
58082;BME280;43876;55.576;38.242;2022-09-12T13:18:19;100050.06;;;14.44;52.38
58082;BME280;43876;55.576;38.242;2022-09-12T13:20:52;100045.81;;;14.31;52.79
58082;BME280;43876;55.576;38.242;2022-09-12T13:23:26;100040.53;;;14.32;52.57
58082;BME280;43876;55.576;38.242;2022-09-12T13:25:57;100044.00;;;14.36;52.54
58082;BME280;43876;55.576;38.242;2022-09-12T13:28:27;100045.69;;;14.45;52.44
58082;BME280;43876;55.576;38.242;2022-09-12T13:30:58;100043.84;;;14.56;52.09
58082;BME280;43876;55.576;38.242;2022-09-12T13:43:28;100043.28;;;14.19;51.44
58082;BME280;43876;55.576;38.242;2022-09-12T13:46:02;100045.00;;;14.23;51.01
58082;BME280;43876;55.576;38.242;2022-09-12T13:48:29;100045.06;;;14.20;50.50
58082;BME280;43876;55.576;38.242;2022-09-12T13:50:57;100035.47;;;14.11;50.70
58082;BME280;43876;55.576;38.242;2022-09-12T13:53:27;100044.25;;;14.11;51.28
58082;BME280;43876;55.576;38.242;2022-09-12T13:55:57;100037.22;;;14.13;50.62
58082;BME280;43876;55.576;38.242;2022-09-12T13:58:26;100032.81;;;14.14;51.01
58082;BME280;43876;55.576;38.242;2022-09-12T14:03:28;100031.00;;;14.21;50.90
58082;BME280;43876;55.576;38.242;2022-09-12T14:06:14;100038.00;;;14.22;50.58
58082;BME280;43876;55.576;38.242;2022-09-12T14:08:44;100037.16;;;14.20;50.79
58082;BME280;43876;55.576;38.242;2022-09-12T14:11:25;100035.41;;;14.17;50.45
58082;BME280;43876;55.576;38.242;2022-09-12T14:14:26;100039.03;;;14.07;50.69
58082;BME280;43876;55.576;38.242;2022-09-12T14:17:34;100030.28;;;14.02;51.01
58082;BME280;43876;55.576;38.242;2022-09-12T14:20:29;100028.56;;;14.01;50.61
58082;BME280;43876;55.576;38.242;2022-09-12T14:23:00;100028.66;;;13.87;50.11
58082;BME280;43876;55.576;38.242;2022-09-12T14:25:30;100026.09;;;13.78;50.60
58082;BME280;43876;55.576;38.242;2022-09-12T14:28:01;100026.09;;;13.78;50.60
58082;BME280;43876;55.576;38.242;2022-09-12T14:30:32;100024.38;;;13.77;50.08
58082;BME280;43876;55.576;38.242;2022-09-12T14:41:08;100024.41;;;13.70;51.11
58082;BME280;43876;55.576;38.242;2022-09-12T14:43:46;100028.75;;;13.73;51.18
58082;BME280;43876;55.576;38.242;2022-09-12T14:52:33;100034.03;;;13.73;50.86
58082;BME280;43876;55.576;38.242;2022-09-12T14:55:02;100037.53;;;13.69;51.42
58082;BME280;43876;55.576;38.242;2022-09-12T15:02:43;100026.22;;;13.64;51.32
58082;BME280;43876;55.576;38.242;2022-09-12T15:05:15;100050.69;;;13.61;51.61
58082;BME280;43876;55.576;38.242;2022-09-12T15:07:55;100037.69;;;13.44;51.14
58082;BME280;43876;55.576;38.242;2022-09-12T15:15:36;100040.38;;;13.26;52.24
58082;BME280;43876;55.576;38.242;2022-09-12T15:18:03;100038.63;;;13.20;52.41
58082;BME280;43876;55.576;38.242;2022-09-12T15:20:56;100042.19;;;13.13;52.47
58082;BME280;43876;55.576;38.242;2022-09-12T15:23:42;100044.84;;;13.04;52.66
58082;BME280;43876;55.576;38.242;2022-09-12T15:26:14;100045.72;;;13.04;52.75
58082;BME280;43876;55.576;38.242;2022-09-12T15:28:41;100044.84;;;13.01;52.90
58082;BME280;43876;55.576;38.242;2022-09-12T15:33:42;100051.00;;;12.87;53.26
58082;BME280;43876;55.576;38.242;2022-09-12T15:36:11;100049.28;;;12.80;53.30
58082;BME280;43876;55.576;38.242;2022-09-12T15:38:38;100054.53;;;12.73;53.53
58082;BME280;43876;55.576;38.242;2022-09-12T15:41:13;100057.19;;;12.65;53.67
58082;BME280;43876;55.576;38.242;2022-09-12T15:43:40;100049.31;;;12.63;53.81
58082;BME280;43876;55.576;38.242;2022-09-12T15:46:11;100045.84;;;12.55;54.08
58082;BME280;43876;55.576;38.242;2022-09-12T15:48:38;100056.34;;;12.46;54.13
58082;BME280;43876;55.576;38.242;2022-09-12T15:51:10;100058.94;;;12.37;54.46
58082;BME280;43876;55.576;38.242;2022-09-12T15:53:41;100052.00;;;12.31;54.51
58082;BME280;43876;55.576;38.242;2022-09-12T15:56:12;100053.75;;;12.29;54.61
58082;BME280;43876;55.576;38.242;2022-09-12T15:58:56;100057.25;;;12.26;54.77
58082;BME280;43876;55.576;38.242;2022-09-12T16:01:54;100060.72;;;12.19;54.77
58082;BME280;43876;55.576;38.242;2022-09-12T16:04:43;100066.84;;;12.14;55.02
58082;BME280;43876;55.576;38.242;2022-09-12T16:07:34;100067.69;;;12.08;55.13
58082;BME280;43876;55.576;38.242;2022-09-12T16:10:01;100066.81;;;12.01;55.02
58082;BME280;43876;55.576;38.242;2022-09-12T16:12:29;100076.41;;;11.98;55.17
58082;BME280;43876;55.576;38.242;2022-09-12T16:15:30;100072.06;;;11.92;55.30